Highville, Pennsylvania
Current Conditions -  °F | °C
As of 4:53 AM on Tuesday 27 Jan 2015 (Local Time) from KLNS Reporting Station
Overcast Overcast  
Wind Chill: 18°   Ceiling: 4300
Heat Index: 26°   Visibility: 10mi
Dew Point: 18°   Wind: 7mph
Humidity: 71%   Direction: 320°NW
Pressure: 29.73"   Gusts: NA
Location:  39.9352°N, 76.3442°W
Report Text: KLNS 270953Z 32006KT 10SM BKN043 OVC075 M03/M08 A2973 RMK AO2 SLP073 T10331078
Loading
Personal Weather Stations






























Interactive Weather Map New forecast layout! Learn more

10-Day Weather Forecast

Advertisements
Track Severe Weather on mobile